createdAt,value
2019-03-21T00:00:25.229Z,8.70
2019-03-21T00:02:55.257Z,8.70
2019-03-21T00:05:26.769Z,8.70
2019-03-21T00:07:57.380Z,8.70
2019-03-21T00:10:54.168Z,8.60
2019-03-21T00:13:24.381Z,8.60
2019-03-21T00:15:58.021Z,8.70
2019-03-21T00:18:28.293Z,8.60
2019-03-21T00:20:59.048Z,8.60
2019-03-21T00:23:29.702Z,8.60
2019-03-21T00:25:59.947Z,8.60
2019-03-21T00:28:30.281Z,8.60
2019-03-21T00:31:00.196Z,8.60
2019-03-21T00:33:30.378Z,8.60
2019-03-21T00:36:00.335Z,8.60
2019-03-21T00:38:30.237Z,8.60
2019-03-21T00:41:00.415Z,8.60
2019-03-21T00:43:30.953Z,8.60
2019-03-21T00:46:01.196Z,8.60
2019-03-21T00:48:31.473Z,8.60
2019-03-21T00:51:01.714Z,8.60
2019-03-21T00:53:31.936Z,8.60
2019-03-21T00:56:01.955Z,8.60
2019-03-21T00:58:31.818Z,8.60
2019-03-21T01:01:01.794Z,8.60
2019-03-21T01:03:32.441Z,8.60
2019-03-21T01:06:02.700Z,8.60
2019-03-21T01:08:32.562Z,8.60
2019-03-21T01:11:02.795Z,8.60
2019-03-21T01:13:34.289Z,8.60
2019-03-21T01:16:04.112Z,8.60
2019-03-21T01:18:34.410Z,8.60
2019-03-21T01:21:04.712Z,8.60
2019-03-21T01:23:34.952Z,8.60
2019-03-21T01:26:05.619Z,8.60
2019-03-21T01:28:35.862Z,8.60
2019-03-21T01:31:06.178Z,8.60
2019-03-21T01:33:54.946Z,8.60
2019-03-21T01:36:25.781Z,8.60
2019-03-21T01:38:55.984Z,8.60
2019-03-21T01:41:26.258Z,8.60
2019-03-21T01:43:56.153Z,8.60
2019-03-21T01:46:26.553Z,8.60
2019-03-21T01:48:57.221Z,8.60
2019-03-21T01:51:27.464Z,8.60
2019-03-21T01:53:57.425Z,8.60
2019-03-21T01:56:28.242Z,8.60
2019-03-21T01:58:58.794Z,8.60
2019-03-21T02:01:28.749Z,8.60
2019-03-21T02:03:59.309Z,8.60
2019-03-21T02:06:29.302Z,8.60
2019-03-21T02:08:59.481Z,8.60
2019-03-21T02:11:29.409Z,8.60
2019-03-21T02:14:00.111Z,8.60
2019-03-21T02:16:30.776Z,8.60
2019-03-21T02:19:00.676Z,8.60
2019-03-21T02:21:30.988Z,8.60
2019-03-21T02:24:00.888Z,8.60
2019-03-21T02:26:30.769Z,8.60
2019-03-21T02:29:00.713Z,8.60
2019-03-21T02:31:31.124Z,8.60
2019-03-21T02:34:01.365Z,8.60
2019-03-21T02:36:42.938Z,8.60
2019-03-21T02:39:13.261Z,8.60
2019-03-21T02:41:43.194Z,8.60
2019-03-21T02:44:13.747Z,8.60
2019-03-21T02:46:45.013Z,8.60
2019-03-21T02:49:15.271Z,8.60
2019-03-21T02:51:45.493Z,8.60
2019-03-21T02:54:15.800Z,8.60
2019-03-21T02:56:46.751Z,8.60
2019-03-21T02:59:16.634Z,8.60
2019-03-21T03:01:47.519Z,8.60
2019-03-21T03:04:17.870Z,8.60
2019-03-21T03:06:48.146Z,8.60
2019-03-21T03:09:18.420Z,8.60
2019-03-21T03:11:49.586Z,8.60
2019-03-21T03:14:19.856Z,8.60
2019-03-21T03:16:50.266Z,8.60
2019-03-21T03:19:20.490Z,8.60
2019-03-21T03:21:50.739Z,8.70
2019-03-21T03:24:23.027Z,8.70
2019-03-21T03:26:53.614Z,8.70
2019-03-21T03:29:24.174Z,8.70
2019-03-21T03:32:13.086Z,8.70
2019-03-21T03:34:43.311Z,8.70
2019-03-21T03:37:13.851Z,8.70
2019-03-21T03:39:44.085Z,8.80
2019-03-21T03:42:14.000Z,8.80
2019-03-21T03:44:44.979Z,8.80
2019-03-21T03:47:15.284Z,8.80
2019-03-21T03:49:46.318Z,8.80
2019-03-21T03:52:16.592Z,8.80
2019-03-21T03:54:47.556Z,8.80
2019-03-21T03:57:17.441Z,8.80
2019-03-21T03:59:47.642Z,8.80
2019-03-21T04:02:17.886Z,8.80
2019-03-21T04:04:47.774Z,8.80
2019-03-21T04:07:18.397Z,8.80
2019-03-21T04:09:48.244Z,8.80
2019-03-21T04:12:18.500Z,8.80
2019-03-21T04:14:48.742Z,8.80
2019-03-21T04:17:19.020Z,8.80
2019-03-21T04:19:49.644Z,8.80
2019-03-21T04:22:20.273Z,8.90
2019-03-21T04:24:50.603Z,8.90
2019-03-21T04:27:21.305Z,8.90
2019-03-21T04:29:57.916Z,8.90
2019-03-21T04:32:28.159Z,8.90
2019-03-21T04:34:58.863Z,8.80
2019-03-21T04:37:29.182Z,8.80
2019-03-21T04:39:59.749Z,8.80
2019-03-21T04:42:29.972Z,8.80
2019-03-21T04:45:00.614Z,8.80
2019-03-21T04:47:30.882Z,8.80
2019-03-21T04:50:01.456Z,8.80
2019-03-21T04:52:31.657Z,8.80
2019-03-21T04:55:01.548Z,8.80
2019-03-21T04:57:31.453Z,8.80
2019-03-21T05:00:03.690Z,8.80
2019-03-21T05:02:34.433Z,8.80
2019-03-21T05:05:04.680Z,8.80
2019-03-21T05:07:35.228Z,8.80
2019-03-21T05:10:05.591Z,8.80
2019-03-21T05:12:36.530Z,8.80
2019-03-21T05:15:09.160Z,8.80
2019-03-21T05:17:39.811Z,8.80
2019-03-21T05:20:14.298Z,8.80
2019-03-21T05:22:44.577Z,8.80
2019-03-21T05:25:14.487Z,8.80
2019-03-21T05:27:44.831Z,8.80
2019-03-21T05:30:21.137Z,8.80
2019-03-21T05:32:51.741Z,8.80
2019-03-21T05:35:22.098Z,8.80
2019-03-21T05:37:52.021Z,8.90
2019-03-21T05:40:22.283Z,8.90
2019-03-21T05:42:59.367Z,8.90
2019-03-21T05:45:29.572Z,8.90
2019-03-21T05:47:59.447Z,8.90
2019-03-21T05:50:29.919Z,8.90
2019-03-21T05:53:00.912Z,8.90
2019-03-21T05:55:30.797Z,8.90
2019-03-21T05:58:01.213Z,8.90
2019-03-21T06:00:36.030Z,8.90
2019-03-21T06:03:07.828Z,8.90
2019-03-21T06:05:39.718Z,9.00
2019-03-21T06:08:16.358Z,9.00
2019-03-21T06:10:47.200Z,9.00
2019-03-21T06:13:20.325Z,9.00
2019-03-21T06:15:51.538Z,9.00
2019-03-21T06:19:09.903Z,9.00
2019-03-21T06:22:19.410Z,9.00
2019-03-21T06:25:34.723Z,9.10
2019-03-21T06:28:04.640Z,9.10
2019-03-21T06:30:34.907Z,9.10
2019-03-21T06:33:05.534Z,9.10
2019-03-21T06:35:35.802Z,9.10
2019-03-21T06:38:06.072Z,9.10
2019-03-21T06:40:36.668Z,9.10
2019-03-21T06:43:07.374Z,9.10
2019-03-21T06:45:47.618Z,9.10
2019-03-21T06:48:10.134Z,9.10
2019-03-21T06:50:40.328Z,9.20
2019-03-21T06:53:11.334Z,9.20
2019-03-21T06:55:41.535Z,9.20
2019-03-21T06:58:11.475Z,9.20
2019-03-21T07:00:41.376Z,9.20
2019-03-21T07:03:11.573Z,9.20
2019-03-21T07:05:41.441Z,9.20
2019-03-21T07:08:11.370Z,9.20
2019-03-21T07:10:41.528Z,9.30
2019-03-21T07:13:11.439Z,9.30
2019-03-21T07:15:41.717Z,9.30
2019-03-21T07:18:12.283Z,9.30
2019-03-21T07:20:42.432Z,9.30
2019-03-21T07:23:12.320Z,9.30
2019-03-21T07:25:42.497Z,9.40
2019-03-21T07:28:12.771Z,9.40
2019-03-21T07:30:43.010Z,9.40
2019-03-21T07:33:12.967Z,9.40
2019-03-21T07:35:42.855Z,9.40
2019-03-21T07:38:13.161Z,9.40
2019-03-21T07:40:43.812Z,9.40
2019-03-21T07:43:14.049Z,9.50
2019-03-21T07:45:44.310Z,9.50
2019-03-21T07:48:14.959Z,9.50
2019-03-21T07:50:45.208Z,9.50
2019-03-21T07:53:15.495Z,9.50
2019-03-21T07:55:46.327Z,9.50
2019-03-21T07:58:17.111Z,9.60
2019-03-21T08:00:47.738Z,9.50
2019-03-21T08:03:18.387Z,9.50
2019-03-21T08:05:49.694Z,9.50
2019-03-21T08:08:19.929Z,9.50
2019-03-21T08:10:50.502Z,9.50
2019-03-21T08:13:20.729Z,9.50
2019-03-21T08:15:50.664Z,9.40
2019-03-21T08:18:20.561Z,9.40
2019-03-21T08:20:57.186Z,9.50
2019-03-21T08:23:23.383Z,9.40
2019-03-21T08:25:53.684Z,9.40
2019-03-21T08:28:42.416Z,9.40
2019-03-21T08:31:20.876Z,9.40
2019-03-21T08:33:50.711Z,9.40
2019-03-21T08:36:20.992Z,9.50
2019-03-21T08:38:51.291Z,9.50
2019-03-21T08:41:21.989Z,9.50
2019-03-21T08:43:52.167Z,9.50
2019-03-21T08:46:23.111Z,9.40
2019-03-21T08:48:53.399Z,9.40
2019-03-21T08:51:23.690Z,9.40
2019-03-21T08:53:53.925Z,9.40
2019-03-21T08:56:23.848Z,9.40
2019-03-21T08:58:53.710Z,9.40
2019-03-21T09:01:24.368Z,9.40
2019-03-21T09:03:54.908Z,9.40
2019-03-21T09:06:25.141Z,9.40
2019-03-21T09:08:55.055Z,9.40
2019-03-21T09:11:25.217Z,9.30
2019-03-21T09:13:56.244Z,9.30
2019-03-21T09:16:26.492Z,9.40
2019-03-21T09:18:56.722Z,9.40
2019-03-21T09:21:26.967Z,9.40
2019-03-21T09:23:56.863Z,9.40
2019-03-21T09:26:27.313Z,9.40
2019-03-21T09:28:57.490Z,9.40
2019-03-21T09:31:27.474Z,9.40
2019-03-21T09:33:57.709Z,9.50
2019-03-21T09:36:27.610Z,9.50
2019-03-21T09:38:57.668Z,9.50
2019-03-21T09:41:27.950Z,9.50
2019-03-21T09:43:58.177Z,9.50
2019-03-21T09:46:28.098Z,9.50
2019-03-21T09:48:58.381Z,9.60
2019-03-21T09:51:31.143Z,9.70
2019-03-21T09:54:09.215Z,9.70
2019-03-21T09:56:32.434Z,9.80
2019-03-21T09:59:03.325Z,9.80
2019-03-21T10:01:33.592Z,9.90
2019-03-21T10:04:03.623Z,9.90
2019-03-21T10:06:34.317Z,10.00
2019-03-21T10:09:06.051Z,10.00
2019-03-21T10:11:36.558Z,10.10
2019-03-21T10:14:06.980Z,10.10
2019-03-21T10:16:37.181Z,10.10
2019-03-21T10:19:07.821Z,10.20
2019-03-21T10:21:43.241Z,10.20
2019-03-21T10:24:09.736Z,10.20
2019-03-21T10:26:40.002Z,10.20
2019-03-21T10:29:10.262Z,10.30
2019-03-21T10:31:40.089Z,10.30
2019-03-21T10:34:10.745Z,10.40
2019-03-21T10:36:40.960Z,10.50
2019-03-21T10:39:10.887Z,10.50
2019-03-21T10:41:41.535Z,10.60
2019-03-21T10:44:11.607Z,10.60
2019-03-21T10:46:41.820Z,10.60
2019-03-21T10:49:12.037Z,10.70
2019-03-21T10:51:41.925Z,10.70
2019-03-21T10:54:11.909Z,10.70
2019-03-21T10:56:42.547Z,10.70
2019-03-21T10:59:12.896Z,10.80
2019-03-21T11:01:42.753Z,10.90
2019-03-21T11:04:12.929Z,10.90
2019-03-21T11:06:43.561Z,11.00
2019-03-21T11:09:13.809Z,11.00
2019-03-21T11:11:43.716Z,11.00
2019-03-21T11:14:13.982Z,11.10
2019-03-21T11:16:44.202Z,11.10
2019-03-21T11:19:14.062Z,11.20
2019-03-21T11:21:44.346Z,11.30
2019-03-21T11:24:14.589Z,11.40
2019-03-21T11:26:44.668Z,11.50
2019-03-21T11:29:15.025Z,11.60
2019-03-21T11:31:44.900Z,11.70
2019-03-21T11:34:15.209Z,11.70
2019-03-21T11:36:46.160Z,11.80
2019-03-21T11:39:16.866Z,11.70
2019-03-21T11:41:47.100Z,11.80
2019-03-21T11:44:17.417Z,11.80
2019-03-21T11:46:47.632Z,11.80
2019-03-21T11:49:17.960Z,11.80
2019-03-21T11:51:48.273Z,11.80
2019-03-21T11:54:18.186Z,11.90
2019-03-21T11:56:48.747Z,11.90
2019-03-21T11:59:18.695Z,11.90
2019-03-21T12:01:49.465Z,12.00
2019-03-21T12:04:20.531Z,12.00
2019-03-21T12:06:50.811Z,11.90
2019-03-21T12:09:21.250Z,11.80
2019-03-21T12:11:51.592Z,11.80
2019-03-21T12:14:22.239Z,11.70
2019-03-21T12:16:52.585Z,11.80
2019-03-21T12:19:23.242Z,11.70
2019-03-21T12:21:53.410Z,11.80
2019-03-21T12:24:23.508Z,11.80
2019-03-21T12:26:54.195Z,11.70
2019-03-21T12:29:24.094Z,11.70
2019-03-21T12:31:54.715Z,11.70
2019-03-21T12:34:25.037Z,11.70
2019-03-21T12:36:55.603Z,11.80
2019-03-21T12:39:28.782Z,11.80
2019-03-21T12:41:58.601Z,11.90
2019-03-21T12:44:28.800Z,11.90
2019-03-21T12:46:59.360Z,12.00
2019-03-21T12:49:29.259Z,12.10
2019-03-21T12:51:59.540Z,12.10
2019-03-21T12:54:29.807Z,12.10
2019-03-21T12:57:00.369Z,12.10
2019-03-21T12:59:30.336Z,12.00
2019-03-21T13:02:00.663Z,12.00
2019-03-21T13:04:31.521Z,12.00
2019-03-21T13:07:01.775Z,12.00
2019-03-21T13:09:32.016Z,12.10
2019-03-21T13:12:02.316Z,12.00
2019-03-21T13:14:32.934Z,12.10
2019-03-21T13:17:03.157Z,12.20
2019-03-21T13:19:33.162Z,12.30
2019-03-21T13:22:03.368Z,12.40
2019-03-21T13:24:36.062Z,12.40
2019-03-21T13:27:06.334Z,12.40
2019-03-21T13:29:36.671Z,12.40
2019-03-21T13:32:08.124Z,12.40
2019-03-21T13:34:38.820Z,12.40
2019-03-21T13:37:09.085Z,12.30
2019-03-21T13:39:50.765Z,12.30
2019-03-21T13:42:21.476Z,12.30
2019-03-21T13:44:51.724Z,12.20
2019-03-21T13:47:21.697Z,12.20
2019-03-21T13:49:51.934Z,12.20
2019-03-21T13:52:22.262Z,12.20
2019-03-21T13:54:52.516Z,12.30
2019-03-21T13:57:23.186Z,12.30
2019-03-21T13:59:53.855Z,12.30
2019-03-21T14:02:24.506Z,12.30
2019-03-21T14:04:54.364Z,12.30
2019-03-21T14:07:24.732Z,12.40
2019-03-21T14:09:54.644Z,12.50
2019-03-21T14:12:24.932Z,12.50
2019-03-21T14:14:54.960Z,12.50
2019-03-21T14:17:25.239Z,12.60
2019-03-21T14:19:56.942Z,12.60
2019-03-21T14:22:26.827Z,12.60
2019-03-21T14:24:57.062Z,12.60
2019-03-21T14:27:27.445Z,12.80
2019-03-21T14:30:01.675Z,12.90
2019-03-21T14:32:30.017Z,12.90
2019-03-21T14:35:00.678Z,12.90
2019-03-21T14:37:30.902Z,12.80
2019-03-21T14:40:01.654Z,12.90
2019-03-21T14:42:32.401Z,12.80
2019-03-21T14:45:03.054Z,12.90
2019-03-21T14:47:36.346Z,12.90
2019-03-21T14:50:06.801Z,12.90
2019-03-21T14:52:36.929Z,12.70
2019-03-21T14:55:08.368Z,12.60
2019-03-21T14:57:38.429Z,12.50
2019-03-21T15:00:10.266Z,12.50
2019-03-21T15:02:59.352Z,12.50
2019-03-21T15:05:29.382Z,12.50
2019-03-21T15:08:00.618Z,12.60
2019-03-21T15:10:31.293Z,12.60
2019-03-21T15:13:01.229Z,12.60
2019-03-21T15:15:32.349Z,12.60
2019-03-21T15:18:02.467Z,12.60
2019-03-21T15:20:32.976Z,12.50
2019-03-21T15:23:03.398Z,12.50
2019-03-21T15:25:33.622Z,12.50
2019-03-21T15:28:04.858Z,12.50
2019-03-21T15:30:35.840Z,12.50
2019-03-21T15:33:06.082Z,12.40
2019-03-21T15:35:36.479Z,12.40
2019-03-21T15:38:06.773Z,12.40
2019-03-21T15:40:37.633Z,12.40
2019-03-21T15:43:07.939Z,12.40
2019-03-21T15:45:38.554Z,12.40
2019-03-21T15:48:08.773Z,12.40
2019-03-21T15:50:38.698Z,12.40
2019-03-21T15:53:09.025Z,12.40
2019-03-21T15:55:38.981Z,12.40
2019-03-21T15:58:09.169Z,12.40
2019-03-21T16:00:40.741Z,12.40
2019-03-21T16:03:29.497Z,12.30
2019-03-21T16:05:59.905Z,12.30
2019-03-21T16:08:30.560Z,12.20
2019-03-21T16:11:00.919Z,12.20
2019-03-21T16:13:30.800Z,12.10
2019-03-21T16:16:01.385Z,12.10
2019-03-21T16:18:31.785Z,12.10
2019-03-21T16:21:01.766Z,12.00
2019-03-21T16:23:31.835Z,12.00
2019-03-21T16:26:02.469Z,12.00
2019-03-21T16:28:32.645Z,12.00
2019-03-21T16:31:03.087Z,12.00
2019-03-21T16:33:33.007Z,11.90
2019-03-21T16:36:03.213Z,11.90
2019-03-21T16:38:33.502Z,11.90
2019-03-21T16:41:03.717Z,11.80
2019-03-21T16:43:33.594Z,11.80
2019-03-21T16:46:03.871Z,11.80
2019-03-21T16:48:34.088Z,11.80
2019-03-21T16:51:04.360Z,11.80
2019-03-21T16:53:34.225Z,11.80
2019-03-21T16:56:23.304Z,11.70
2019-03-21T16:58:53.954Z,11.70
2019-03-21T17:01:24.619Z,11.70
2019-03-21T17:03:55.284Z,11.70
2019-03-21T17:06:25.821Z,11.70
2019-03-21T17:08:56.352Z,11.60
2019-03-21T17:11:26.644Z,11.60
2019-03-21T17:13:56.902Z,11.60
2019-03-21T17:16:26.779Z,11.60
2019-03-21T17:18:57.419Z,11.50
2019-03-21T17:21:27.681Z,11.50
2019-03-21T17:24:28.457Z,11.50
2019-03-21T17:26:48.792Z,11.40
2019-03-21T17:29:19.048Z,11.40
2019-03-21T17:31:55.931Z,11.40
2019-03-21T17:34:26.313Z,11.30
2019-03-21T17:36:56.501Z,11.30
2019-03-21T17:39:26.417Z,11.30
2019-03-21T17:41:56.643Z,11.30
2019-03-21T17:44:26.968Z,11.30
2019-03-21T17:46:57.463Z,11.20
2019-03-21T17:49:28.012Z,11.20
2019-03-21T17:51:57.911Z,11.20
2019-03-21T17:54:40.671Z,11.20
2019-03-21T17:57:00.802Z,11.20
2019-03-21T17:59:31.783Z,11.10
2019-03-21T18:02:01.637Z,11.10
2019-03-21T18:04:32.282Z,11.10
2019-03-21T18:07:02.845Z,11.10
2019-03-21T18:09:33.175Z,11.00
2019-03-21T18:12:03.737Z,11.00
2019-03-21T18:14:34.385Z,11.00
2019-03-21T18:17:04.639Z,11.00
2019-03-21T18:19:34.916Z,11.00
2019-03-21T18:22:05.136Z,11.00
2019-03-21T18:24:35.054Z,10.90
2019-03-21T18:27:05.643Z,10.90
2019-03-21T18:29:35.996Z,10.90
2019-03-21T18:32:06.547Z,10.90
2019-03-21T18:34:36.464Z,10.90
2019-03-21T18:37:06.392Z,10.80
2019-03-21T18:39:36.459Z,10.90
2019-03-21T18:42:07.257Z,10.80
2019-03-21T18:44:37.492Z,10.80
2019-03-21T18:47:07.402Z,10.80
2019-03-21T18:49:37.285Z,10.80
2019-03-21T18:52:07.510Z,10.70
2019-03-21T18:54:38.261Z,10.70
2019-03-21T18:57:08.674Z,10.70
2019-03-21T18:59:38.933Z,10.70
2019-03-21T19:02:09.824Z,10.70
2019-03-21T19:04:40.035Z,10.70
2019-03-21T19:07:09.958Z,10.60
2019-03-21T19:09:40.183Z,10.60
2019-03-21T19:12:10.859Z,10.60
2019-03-21T19:14:41.044Z,10.60
2019-03-21T19:17:11.344Z,10.60
2019-03-21T19:19:42.466Z,10.60
2019-03-21T19:22:12.492Z,10.60
2019-03-21T19:24:43.129Z,10.50
2019-03-21T19:27:12.958Z,10.50
2019-03-21T19:29:43.311Z,10.50
2019-03-21T19:32:13.858Z,10.50
2019-03-21T19:34:44.509Z,10.50
2019-03-21T19:37:14.405Z,10.50
2019-03-21T19:39:45.114Z,10.50
2019-03-21T19:42:15.020Z,10.40
2019-03-21T19:44:45.269Z,10.40
2019-03-21T19:47:23.857Z,10.40
2019-03-21T19:49:48.579Z,10.40
2019-03-21T19:52:18.528Z,10.40
2019-03-21T19:54:49.085Z,10.40
2019-03-21T19:57:37.833Z,10.30
2019-03-21T20:00:09.975Z,10.30
2019-03-21T20:02:39.865Z,10.30
2019-03-21T20:05:09.994Z,10.30
2019-03-21T20:07:40.210Z,10.30
2019-03-21T20:10:10.555Z,10.30
2019-03-21T20:12:40.469Z,10.20
2019-03-21T20:15:10.342Z,10.20
2019-03-21T20:17:41.030Z,10.20
2019-03-21T20:20:11.536Z,10.20
2019-03-21T20:22:42.205Z,10.20
2019-03-21T20:25:12.887Z,10.20
2019-03-21T20:27:43.558Z,10.20
2019-03-21T20:30:15.441Z,10.10
2019-03-21T20:32:45.652Z,10.10
2019-03-21T20:35:15.926Z,10.10
2019-03-21T20:37:46.753Z,10.10
2019-03-21T20:40:16.710Z,10.10
2019-03-21T20:42:46.961Z,10.10
2019-03-21T20:45:17.762Z,10.10
2019-03-21T20:47:47.649Z,10.10
2019-03-21T20:50:17.847Z,10.00
2019-03-21T20:52:47.904Z,10.00
2019-03-21T20:55:17.810Z,10.00
2019-03-21T20:57:48.582Z,10.00
2019-03-21T21:00:19.893Z,10.00
2019-03-21T21:02:49.821Z,10.00
2019-03-21T21:05:22.887Z,9.90
2019-03-21T21:07:52.072Z,9.90
2019-03-21T21:10:22.740Z,9.90
2019-03-21T21:12:53.098Z,9.90
2019-03-21T21:15:23.828Z,9.90
2019-03-21T21:17:54.812Z,9.80
2019-03-21T21:20:25.164Z,9.80
2019-03-21T21:22:55.392Z,9.80
2019-03-21T21:25:26.095Z,9.80
2019-03-21T21:27:55.884Z,9.80
2019-03-21T21:30:27.226Z,9.80
2019-03-21T21:32:57.646Z,9.80
2019-03-21T21:35:27.938Z,9.70
2019-03-21T21:37:57.840Z,9.70
2019-03-21T21:40:28.079Z,9.70
2019-03-21T21:42:59.722Z,9.70
2019-03-21T21:45:29.923Z,9.70
2019-03-21T21:48:18.693Z,9.70
2019-03-21T21:50:49.293Z,9.70
2019-03-21T21:53:19.589Z,9.70
2019-03-21T21:55:50.270Z,9.60
2019-03-21T21:58:20.154Z,9.60
2019-03-21T22:00:50.578Z,9.60
2019-03-21T22:03:20.429Z,9.60
2019-03-21T22:05:50.658Z,9.60
2019-03-21T22:08:20.536Z,9.60
2019-03-21T22:10:50.460Z,9.60
2019-03-21T22:13:20.768Z,9.60
2019-03-21T22:15:51.764Z,9.50
2019-03-21T22:18:21.892Z,9.50
2019-03-21T22:20:52.128Z,9.50
2019-03-21T22:23:21.965Z,9.50
2019-03-21T22:25:52.318Z,9.50
2019-03-21T22:28:22.539Z,9.50
2019-03-21T22:30:52.818Z,9.40
2019-03-21T22:33:23.068Z,9.40
2019-03-21T22:35:52.973Z,9.40
2019-03-21T22:38:23.293Z,9.40
2019-03-21T22:40:54.301Z,9.40
2019-03-21T22:43:24.564Z,9.40
2019-03-21T22:45:54.821Z,9.40
2019-03-21T22:48:24.708Z,9.40
2019-03-21T22:50:55.222Z,9.40
2019-03-21T22:53:25.587Z,9.40
2019-03-21T22:55:55.902Z,9.40
2019-03-21T22:58:31.676Z,9.30
2019-03-21T23:00:57.425Z,9.30
2019-03-21T23:03:27.341Z,9.30
2019-03-21T23:05:58.040Z,9.30
2019-03-21T23:08:28.036Z,9.30
2019-03-21T23:10:57.941Z,9.30
2019-03-21T23:13:28.236Z,9.30
2019-03-21T23:15:58.860Z,9.20
2019-03-21T23:18:28.775Z,9.20
2019-03-21T23:20:59.052Z,9.20
2019-03-21T23:23:29.804Z,9.20
2019-03-21T23:26:00.309Z,9.20
2019-03-21T23:28:31.323Z,9.20
2019-03-21T23:31:01.442Z,9.20
2019-03-21T23:33:31.785Z,9.20
2019-03-21T23:36:02.063Z,9.20
2019-03-21T23:38:32.425Z,9.20
2019-03-21T23:41:02.665Z,9.20
2019-03-21T23:43:33.262Z,9.20
2019-03-21T23:46:03.140Z,9.10
2019-03-21T23:48:34.156Z,9.10
2019-03-21T23:51:04.707Z,9.10
2019-03-21T23:53:34.584Z,9.10
2019-03-21T23:56:04.989Z,9.10
2019-03-21T23:58:35.274Z,9.10
